sensor_id;sensor_type;location;lat;lon;timestamp;pressure;altitude;pressure_sealevel;temperature;humidity
13027;BME280;6580;42.680;23.324;2022-07-22T00:01:39;95241.56;;;25.07;50.02
13027;BME280;6580;42.680;23.324;2022-07-22T00:04:06;95253.56;;;25.22;49.55
13027;BME280;6580;42.680;23.324;2022-07-22T00:06:33;95245.56;;;25.04;50.12
13027;BME280;6580;42.680;23.324;2022-07-22T00:08:59;95253.75;;;24.88;50.22
13027;BME280;6580;42.680;23.324;2022-07-22T00:11:26;95258.13;;;24.89;49.76
13027;BME280;6580;42.680;23.324;2022-07-22T00:13:54;95256.38;;;24.83;49.85
13027;BME280;6580;42.680;23.324;2022-07-22T00:16:21;95244.00;;;24.92;48.82
13027;BME280;6580;42.680;23.324;2022-07-22T00:18:48;95257.41;;;25.10;47.97
13027;BME280;6580;42.680;23.324;2022-07-22T00:21:15;95257.88;;;25.18;47.59
13027;BME280;6580;42.680;23.324;2022-07-22T00:23:41;95257.06;;;24.90;48.83
13027;BME280;6580;42.680;23.324;2022-07-22T00:26:08;95261.13;;;24.76;49.16
13027;BME280;6580;42.680;23.324;2022-07-22T00:28:35;95260.75;;;24.84;48.63
13027;BME280;6580;42.680;23.324;2022-07-22T00:31:03;95262.19;;;24.47;49.91
13027;BME280;6580;42.680;23.324;2022-07-22T00:33:30;95272.13;;;24.53;49.93
13027;BME280;6580;42.680;23.324;2022-07-22T00:35:57;95270.72;;;24.39;50.64
13027;BME280;6580;42.680;23.324;2022-07-22T00:38:23;95262.38;;;24.57;49.81
13027;BME280;6580;42.680;23.324;2022-07-22T00:40:50;95271.00;;;24.93;48.75
13027;BME280;6580;42.680;23.324;2022-07-22T00:43:17;95267.38;;;25.04;48.44
13027;BME280;6580;42.680;23.324;2022-07-22T00:45:44;95275.66;;;24.93;48.69
13027;BME280;6580;42.680;23.324;2022-07-22T00:48:12;95276.59;;;24.59;49.41
13027;BME280;6580;42.680;23.324;2022-07-22T00:50:38;95269.06;;;24.50;49.70
13027;BME280;6580;42.680;23.324;2022-07-22T00:53:05;95272.59;;;24.62;49.21
13027;BME280;6580;42.680;23.324;2022-07-22T00:55:33;95265.38;;;24.56;49.69
13027;BME280;6580;42.680;23.324;2022-07-22T00:58:00;95267.47;;;24.65;49.75
13027;BME280;6580;42.680;23.324;2022-07-22T01:00:27;95260.41;;;24.80;48.74
13027;BME280;6580;42.680;23.324;2022-07-22T01:02:56;95263.09;;;24.64;49.31
13027;BME280;6580;42.680;23.324;2022-07-22T01:05:24;95261.91;;;24.60;49.08
13027;BME280;6580;42.680;23.324;2022-07-22T01:07:50;95270.72;;;24.39;49.82
13027;BME280;6580;42.680;23.324;2022-07-22T01:10:17;95267.09;;;24.22;50.10
13027;BME280;6580;42.680;23.324;2022-07-22T01:12:44;95265.72;;;23.74;51.12
13027;BME280;6580;42.680;23.324;2022-07-22T01:15:11;95261.25;;;23.79;50.66
13027;BME280;6580;42.680;23.324;2022-07-22T01:17:37;95274.59;;;23.92;50.73
13027;BME280;6580;42.680;23.324;2022-07-22T01:20:07;95275.84;;;24.13;50.08
13027;BME280;6580;42.680;23.324;2022-07-22T01:22:34;95271.84;;;23.69;52.04
13027;BME280;6580;42.680;23.324;2022-07-22T01:25:01;95273.66;;;23.98;50.99
13027;BME280;6580;42.680;23.324;2022-07-22T01:27:27;95268.66;;;24.18;50.04
13027;BME280;6580;42.680;23.324;2022-07-22T01:29:55;95270.97;;;24.26;50.22
13027;BME280;6580;42.680;23.324;2022-07-22T01:32:21;95264.28;;;24.17;50.70
13027;BME280;6580;42.680;23.324;2022-07-22T01:34:48;95259.94;;;24.33;49.14
13027;BME280;6580;42.680;23.324;2022-07-22T01:37:16;95266.59;;;24.25;49.93
13027;BME280;6580;42.680;23.324;2022-07-22T01:39:43;95266.13;;;24.28;49.62
13027;BME280;6580;42.680;23.324;2022-07-22T01:42:10;95265.09;;;24.06;49.62
13027;BME280;6580;42.680;23.324;2022-07-22T01:44:37;95258.69;;;24.24;48.52
13027;BME280;6580;42.680;23.324;2022-07-22T01:47:04;95255.00;;;24.30;48.58
13027;BME280;6580;42.680;23.324;2022-07-22T01:49:31;95266.66;;;24.02;49.41
13027;BME280;6580;42.680;23.324;2022-07-22T01:51:58;95276.25;;;23.82;50.44
13027;BME280;6580;42.680;23.324;2022-07-22T01:54:26;95275.03;;;24.12;49.68
13027;BME280;6580;42.680;23.324;2022-07-22T01:56:54;95271.31;;;24.30;49.38
13027;BME280;6580;42.680;23.324;2022-07-22T01:59:20;95255.75;;;24.14;50.11
13027;BME280;6580;42.680;23.324;2022-07-22T02:01:47;95269.84;;;24.11;51.31
13027;BME280;6580;42.680;23.324;2022-07-22T02:04:14;95268.66;;;24.18;51.04
13027;BME280;6580;42.680;23.324;2022-07-22T02:06:41;95271.28;;;23.90;51.58
13027;BME280;6580;42.680;23.324;2022-07-22T02:09:07;95272.22;;;23.96;52.22
13027;BME280;6580;42.680;23.324;2022-07-22T02:11:36;95276.38;;;23.98;52.30
13027;BME280;6580;42.680;23.324;2022-07-22T02:14:02;95278.97;;;23.93;52.44
13027;BME280;6580;42.680;23.324;2022-07-22T02:16:29;95267.59;;;23.62;53.16
13027;BME280;6580;42.680;23.324;2022-07-22T02:18:56;95290.66;;;23.71;53.04
13027;BME280;6580;42.680;23.324;2022-07-22T02:21:23;95286.88;;;23.72;53.21
13027;BME280;6580;42.680;23.324;2022-07-22T02:23:50;95294.50;;;23.81;53.21
13027;BME280;6580;42.680;23.324;2022-07-22T02:26:16;95289.34;;;23.73;53.20
13027;BME280;6580;42.680;23.324;2022-07-22T02:28:45;95290.53;;;23.43;53.84
13027;BME280;6580;42.680;23.324;2022-07-22T02:31:12;95284.28;;;23.65;53.52
13027;BME280;6580;42.680;23.324;2022-07-22T02:33:39;95291.38;;;23.44;54.36
13027;BME280;6580;42.680;23.324;2022-07-22T02:36:06;95284.88;;;23.56;54.06
13027;BME280;6580;42.680;23.324;2022-07-22T02:38:33;95286.38;;;23.41;54.46
13027;BME280;6580;42.680;23.324;2022-07-22T02:40:59;95292.53;;;23.25;55.10
13027;BME280;6580;42.680;23.324;2022-07-22T02:43:26;95288.84;;;23.31;55.22
13027;BME280;6580;42.680;23.324;2022-07-22T02:45:54;95286.00;;;23.14;55.73
13027;BME280;6580;42.680;23.324;2022-07-22T02:48:21;95295.09;;;23.20;55.79
13027;BME280;6580;42.680;23.324;2022-07-22T02:50:48;95284.69;;;23.17;55.41
13027;BME280;6580;42.680;23.324;2022-07-22T02:53:15;95284.97;;;23.27;55.09
13027;BME280;6580;42.680;23.324;2022-07-22T02:55:42;95281.28;;;23.33;54.92
13027;BME280;6580;42.680;23.324;2022-07-22T02:58:09;95294.66;;;23.57;54.42
13027;BME280;6580;42.680;23.324;2022-07-22T03:00:36;95292.97;;;23.22;55.69
13027;BME280;6580;42.680;23.324;2022-07-22T03:03:05;95289.78;;;23.13;57.01
13027;BME280;6580;42.680;23.324;2022-07-22T03:05:32;95296.97;;;23.08;56.69
13027;BME280;6580;42.680;23.324;2022-07-22T03:07:59;95294.06;;;23.03;56.89
13027;BME280;6580;42.680;23.324;2022-07-22T03:10:26;95285.53;;;22.88;57.58
13027;BME280;6580;42.680;23.324;2022-07-22T03:12:53;95285.63;;;23.11;56.89
13027;BME280;6580;42.680;23.324;2022-07-22T03:15:19;95276.13;;;23.02;56.82
13027;BME280;6580;42.680;23.324;2022-07-22T03:17:46;95289.91;;;23.18;56.59
13027;BME280;6580;42.680;23.324;2022-07-22T03:20:14;95297.41;;;23.05;57.05
13027;BME280;6580;42.680;23.324;2022-07-22T03:22:41;95297.25;;;23.00;57.20
13027;BME280;6580;42.680;23.324;2022-07-22T03:25:08;95292.97;;;22.92;57.85
13027;BME280;6580;42.680;23.324;2022-07-22T03:27:36;95296.00;;;22.84;58.25
13027;BME280;6580;42.680;23.324;2022-07-22T03:30:04;95294.59;;;22.82;57.91
13027;BME280;6580;42.680;23.324;2022-07-22T03:32:31;95299.38;;;22.98;57.15
13027;BME280;6580;42.680;23.324;2022-07-22T03:34:57;95284.28;;;22.72;58.09
13027;BME280;6580;42.680;23.324;2022-07-22T03:37:25;95294.28;;;22.90;58.19
13027;BME280;6580;42.680;23.324;2022-07-22T03:39:52;95300.31;;;23.03;57.95
13027;BME280;6580;42.680;23.324;2022-07-22T03:42:19;95304.44;;;22.94;58.39
13027;BME280;6580;42.680;23.324;2022-07-22T03:44:46;95300.47;;;22.79;58.96
13027;BME280;6580;42.680;23.324;2022-07-22T03:47:17;95302.94;;;22.98;58.20
13027;BME280;6580;42.680;23.324;2022-07-22T03:49:44;95303.50;;;22.89;58.77
13027;BME280;6580;42.680;23.324;2022-07-22T03:52:11;95317.19;;;22.94;58.76
13027;BME280;6580;42.680;23.324;2022-07-22T03:54:40;95316.28;;;23.00;58.45
13027;BME280;6580;42.680;23.324;2022-07-22T03:57:07;95312.75;;;22.99;58.21
13027;BME280;6580;42.680;23.324;2022-07-22T03:59:34;95320.38;;;23.09;58.17
13027;BME280;6580;42.680;23.324;2022-07-22T04:02:01;95323.13;;;23.32;57.01
13027;BME280;6580;42.680;23.324;2022-07-22T04:04:28;95315.88;;;23.14;57.71
13027;BME280;6580;42.680;23.324;2022-07-22T04:06:55;95324.06;;;23.26;57.66
13027;BME280;6580;42.680;23.324;2022-07-22T04:09:22;95312.63;;;23.58;56.30
13027;BME280;6580;42.680;23.324;2022-07-22T04:11:50;95314.53;;;23.58;56.60
13027;BME280;6580;42.680;23.324;2022-07-22T04:14:18;95319.72;;;23.48;56.25
13027;BME280;6580;42.680;23.324;2022-07-22T04:16:45;95319.81;;;23.30;56.85
13027;BME280;6580;42.680;23.324;2022-07-22T04:19:12;95326.13;;;23.42;56.49
13027;BME280;6580;42.680;23.324;2022-07-22T04:21:39;95324.19;;;23.31;56.91
13027;BME280;6580;42.680;23.324;2022-07-22T04:24:06;95326.81;;;23.37;56.50
13027;BME280;6580;42.680;23.324;2022-07-22T04:26:33;95333.31;;;23.48;56.23
13027;BME280;6580;42.680;23.324;2022-07-22T04:29:03;95326.16;;;23.64;55.41
13027;BME280;6580;42.680;23.324;2022-07-22T04:31:30;95332.66;;;23.63;55.95
13027;BME280;6580;42.680;23.324;2022-07-22T04:33:58;95328.28;;;23.63;54.30
13027;BME280;6580;42.680;23.324;2022-07-22T04:36:24;95334.41;;;23.58;53.82
13027;BME280;6580;42.680;23.324;2022-07-22T04:38:51;95341.81;;;23.80;53.21
13027;BME280;6580;42.680;23.324;2022-07-22T04:41:18;95341.41;;;23.77;52.37
13027;BME280;6580;42.680;23.324;2022-07-22T04:43:44;95333.28;;;23.88;51.98
13027;BME280;6580;42.680;23.324;2022-07-22T04:46:13;95329.34;;;23.84;51.97
13027;BME280;6580;42.680;23.324;2022-07-22T04:48:39;95346.06;;;23.88;51.86
13027;BME280;6580;42.680;23.324;2022-07-22T04:51:06;95346.66;;;24.01;52.32
13027;BME280;6580;42.680;23.324;2022-07-22T04:53:33;95346.88;;;24.11;52.50
13027;BME280;6580;42.680;23.324;2022-07-22T04:56:00;95352.69;;;23.80;53.45
13027;BME280;6580;42.680;23.324;2022-07-22T04:58:26;95348.66;;;24.29;51.57
13027;BME280;6580;42.680;23.324;2022-07-22T05:00:53;95353.50;;;24.27;51.14
13027;BME280;6580;42.680;23.324;2022-07-22T05:03:21;95355.28;;;23.98;51.54
13027;BME280;6580;42.680;23.324;2022-07-22T05:05:49;95351.09;;;24.42;50.30
13027;BME280;6580;42.680;23.324;2022-07-22T05:08:16;95348.81;;;24.73;49.62
13027;BME280;6580;42.680;23.324;2022-07-22T05:10:43;95351.50;;;23.88;51.42
13027;BME280;6580;42.680;23.324;2022-07-22T05:13:12;95352.19;;;24.06;51.37
13027;BME280;6580;42.680;23.324;2022-07-22T05:15:39;95348.56;;;25.14;48.93
13027;BME280;6580;42.680;23.324;2022-07-22T05:18:06;95345.97;;;25.79;46.95
13027;BME280;6580;42.680;23.324;2022-07-22T05:20:34;95340.75;;;26.49;45.09
13027;BME280;6580;42.680;23.324;2022-07-22T05:23:02;95339.53;;;27.20;43.31
13027;BME280;6580;42.680;23.324;2022-07-22T05:25:29;95345.97;;;27.93;41.51
13027;BME280;6580;42.680;23.324;2022-07-22T05:27:56;95335.88;;;27.68;40.77
13027;BME280;6580;42.680;23.324;2022-07-22T05:30:23;95346.72;;;28.15;39.63
13027;BME280;6580;42.680;23.324;2022-07-22T05:32:50;95345.34;;;28.18;39.92
13027;BME280;6580;42.680;23.324;2022-07-22T05:35:17;95356.81;;;28.93;38.57
13027;BME280;6580;42.680;23.324;2022-07-22T05:37:45;95346.00;;;28.76;38.01
13027;BME280;6580;42.680;23.324;2022-07-22T05:40:12;95348.97;;;28.70;38.11
13027;BME280;6580;42.680;23.324;2022-07-22T05:42:39;95341.06;;;28.73;38.22
13027;BME280;6580;42.680;23.324;2022-07-22T05:45:07;95312.41;;;29.05;37.22
13027;BME280;6580;42.680;23.324;2022-07-22T05:47:33;95346.16;;;30.02;36.32
13027;BME280;6580;42.680;23.324;2022-07-22T05:50:00;95330.34;;;30.92;34.74
13027;BME280;6580;42.680;23.324;2022-07-22T05:52:27;95333.56;;;31.14;34.22
13027;BME280;6580;42.680;23.324;2022-07-22T05:54:55;95346.25;;;31.00;34.00
13027;BME280;6580;42.680;23.324;2022-07-22T05:57:22;95332.38;;;31.78;33.52
13027;BME280;6580;42.680;23.324;2022-07-22T05:59:50;95341.34;;;31.99;32.86
13027;BME280;6580;42.680;23.324;2022-07-22T06:02:16;95324.81;;;31.99;32.10
13027;BME280;6580;42.680;23.324;2022-07-22T06:04:43;95331.44;;;31.98;32.08
13027;BME280;6580;42.680;23.324;2022-07-22T06:07:10;95334.91;;;32.41;31.47
13027;BME280;6580;42.680;23.324;2022-07-22T06:09:37;95307.34;;;32.41;31.44
13027;BME280;6580;42.680;23.324;2022-07-22T06:12:06;95334.44;;;32.34;31.58
13027;BME280;6580;42.680;23.324;2022-07-22T06:14:33;95331.38;;;32.69;30.87
13027;BME280;6580;42.680;23.324;2022-07-22T06:17:01;95326.81;;;33.30;30.67
13027;BME280;6580;42.680;23.324;2022-07-22T06:19:28;95329.28;;;33.73;30.01
13027;BME280;6580;42.680;23.324;2022-07-22T06:21:56;95328.53;;;34.37;29.03
13027;BME280;6580;42.680;23.324;2022-07-22T06:24:22;95328.47;;;34.73;28.60
13027;BME280;6580;42.680;23.324;2022-07-22T06:26:49;95337.38;;;34.70;28.31
13027;BME280;6580;42.680;23.324;2022-07-22T06:29:20;95333.56;;;33.79;29.11
13027;BME280;6580;42.680;23.324;2022-07-22T06:31:47;95326.03;;;33.25;29.24
13027;BME280;6580;42.680;23.324;2022-07-22T06:34:14;95330.75;;;33.66;29.06
13027;BME280;6580;42.680;23.324;2022-07-22T06:36:41;95326.84;;;33.67;29.72
13027;BME280;6580;42.680;23.324;2022-07-22T06:39:07;95332.31;;;34.40;28.55
13027;BME280;6580;42.680;23.324;2022-07-22T06:41:34;95335.88;;;34.59;28.36
13027;BME280;6580;42.680;23.324;2022-07-22T06:44:01;95318.25;;;33.87;28.95
13027;BME280;6580;42.680;23.324;2022-07-22T06:46:29;95328.09;;;34.30;28.46
13027;BME280;6580;42.680;23.324;2022-07-22T06:48:56;95329.44;;;33.58;29.13
13027;BME280;6580;42.680;23.324;2022-07-22T06:51:22;95330.94;;;34.25;28.78
13027;BME280;6580;42.680;23.324;2022-07-22T06:53:49;95317.25;;;33.41;28.91
13027;BME280;6580;42.680;23.324;2022-07-22T06:56:16;95327.50;;;33.17;30.18
13027;BME280;6580;42.680;23.324;2022-07-22T06:58:43;95331.25;;;34.23;28.27
13027;BME280;6580;42.680;23.324;2022-07-22T07:01:09;95331.44;;;34.90;27.57
13027;BME280;6580;42.680;23.324;2022-07-22T07:03:38;95325.56;;;33.96;27.76
13027;BME280;6580;42.680;23.324;2022-07-22T07:06:07;95333.16;;;34.73;27.93
13027;BME280;6580;42.680;23.324;2022-07-22T07:08:34;95328.97;;;33.75;28.75
13027;BME280;6580;42.680;23.324;2022-07-22T07:11:01;95339.22;;;34.88;27.86
13027;BME280;6580;42.680;23.324;2022-07-22T07:13:28;95321.31;;;35.40;26.94
13027;BME280;6580;42.680;23.324;2022-07-22T07:15:55;95339.22;;;34.75;27.60
13027;BME280;6580;42.680;23.324;2022-07-22T07:18:21;95330.91;;;34.43;27.81
13027;BME280;6580;42.680;23.324;2022-07-22T07:20:50;95332.44;;;34.17;27.86
13027;BME280;6580;42.680;23.324;2022-07-22T07:23:17;95330.63;;;34.58;27.82
13027;BME280;6580;42.680;23.324;2022-07-22T07:25:43;95325.81;;;36.11;26.43
13027;BME280;6580;42.680;23.324;2022-07-22T07:28:10;95328.00;;;36.23;26.05
13027;BME280;6580;42.680;23.324;2022-07-22T07:30:37;95328.16;;;34.88;27.01
13027;BME280;6580;42.680;23.324;2022-07-22T07:33:03;95333.44;;;35.30;26.73
13027;BME280;6580;42.680;23.324;2022-07-22T07:35:30;95271.47;;;36.62;25.45
13027;BME280;6580;42.680;23.324;2022-07-22T07:37:58;95320.59;;;37.53;24.23
13027;BME280;6580;42.680;23.324;2022-07-22T07:40:25;95328.28;;;37.56;24.28
13027;BME280;6580;42.680;23.324;2022-07-22T07:42:53;95323.81;;;37.38;23.94
13027;BME280;6580;42.680;23.324;2022-07-22T07:45:20;95326.31;;;36.57;25.23
13027;BME280;6580;42.680;23.324;2022-07-22T07:47:47;95334.44;;;36.10;25.48
13027;BME280;6580;42.680;23.324;2022-07-22T07:50:13;95325.00;;;35.35;26.22
13027;BME280;6580;42.680;23.324;2022-07-22T07:52:42;95328.72;;;35.93;26.22
13027;BME280;6580;42.680;23.324;2022-07-22T07:55:11;95327.25;;;36.09;25.38
13027;BME280;6580;42.680;23.324;2022-07-22T07:57:39;95301.69;;;35.49;26.00
13027;BME280;6580;42.680;23.324;2022-07-22T08:00:08;95322.00;;;35.58;26.18
13027;BME280;6580;42.680;23.324;2022-07-22T08:02:36;95320.06;;;36.73;25.39
13027;BME280;6580;42.680;23.324;2022-07-22T08:05:04;95318.31;;;36.34;24.81
13027;BME280;6580;42.680;23.324;2022-07-22T08:07:31;95320.53;;;36.67;24.26
13027;BME280;6580;42.680;23.324;2022-07-22T08:09:58;95328.13;;;37.14;23.72
13027;BME280;6580;42.680;23.324;2022-07-22T08:12:26;95316.03;;;37.57;23.11
13027;BME280;6580;42.680;23.324;2022-07-22T08:14:52;95314.16;;;37.83;22.69
13027;BME280;6580;42.680;23.324;2022-07-22T08:17:19;95320.38;;;37.02;23.35
13027;BME280;6580;42.680;23.324;2022-07-22T08:19:46;95317.03;;;37.69;22.55
13027;BME280;6580;42.680;23.324;2022-07-22T08:22:13;95319.38;;;37.93;22.14
13027;BME280;6580;42.680;23.324;2022-07-22T08:24:39;95323.78;;;38.62;21.38
13027;BME280;6580;42.680;23.324;2022-07-22T08:27:06;95319.97;;;39.00;20.49
13027;BME280;6580;42.680;23.324;2022-07-22T08:29:34;95309.06;;;40.31;20.01
13027;BME280;6580;42.680;23.324;2022-07-22T08:32:01;95316.72;;;40.75;19.52
13027;BME280;6580;42.680;23.324;2022-07-22T08:34:28;95318.44;;;40.99;18.78
13027;BME280;6580;42.680;23.324;2022-07-22T08:36:55;95300.09;;;41.34;18.64
13027;BME280;6580;42.680;23.324;2022-07-22T08:39:21;95314.69;;;42.11;18.00
13027;BME280;6580;42.680;23.324;2022-07-22T08:41:48;95308.00;;;41.32;18.16
13027;BME280;6580;42.680;23.324;2022-07-22T08:44:16;95312.88;;;39.48;19.90
13027;BME280;6580;42.680;23.324;2022-07-22T08:46:45;95320.59;;;39.05;20.49
13027;BME280;6580;42.680;23.324;2022-07-22T08:49:13;95315.78;;;38.69;21.37
13027;BME280;6580;42.680;23.324;2022-07-22T08:51:40;95310.91;;;39.78;19.81
13027;BME280;6580;42.680;23.324;2022-07-22T08:54:07;95294.38;;;40.22;19.46
13027;BME280;6580;42.680;23.324;2022-07-22T08:56:33;95307.88;;;40.73;19.44
13027;BME280;6580;42.680;23.324;2022-07-22T08:59:00;95311.00;;;41.03;19.49
13027;BME280;6580;42.680;23.324;2022-07-22T09:01:27;95315.41;;;41.61;18.75
13027;BME280;6580;42.680;23.324;2022-07-22T09:03:56;95313.31;;;41.70;18.91
13027;BME280;6580;42.680;23.324;2022-07-22T09:06:25;95309.09;;;40.95;18.89
13027;BME280;6580;42.680;23.324;2022-07-22T09:08:54;95307.69;;;41.34;19.22
13027;BME280;6580;42.680;23.324;2022-07-22T09:11:23;95306.16;;;42.08;18.55
13027;BME280;6580;42.680;23.324;2022-07-22T09:13:51;95307.97;;;42.28;17.90
13027;BME280;6580;42.680;23.324;2022-07-22T09:16:42;95313.59;;;42.95;16.81
13027;BME280;6580;42.680;23.324;2022-07-22T09:19:11;95312.84;;;42.98;16.72
13027;BME280;6580;42.680;23.324;2022-07-22T09:21:40;95305.75;;;43.16;16.44
13027;BME280;6580;42.680;23.324;2022-07-22T09:24:08;95314.19;;;43.31;16.00
13027;BME280;6580;42.680;23.324;2022-07-22T09:26:36;95311.75;;;43.29;16.61
13027;BME280;6580;42.680;23.324;2022-07-22T09:29:05;95307.69;;;43.00;16.44
13027;BME280;6580;42.680;23.324;2022-07-22T09:31:33;95308.88;;;42.71;17.26
13027;BME280;6580;42.680;23.324;2022-07-22T09:34:01;95299.94;;;43.09;16.60
13027;BME280;6580;42.680;23.324;2022-07-22T09:36:30;95301.47;;;43.06;16.67
13027;BME280;6580;42.680;23.324;2022-07-22T09:38:57;95303.28;;;43.14;17.12
13027;BME280;6580;42.680;23.324;2022-07-22T09:41:24;95301.28;;;42.32;16.54
13027;BME280;6580;42.680;23.324;2022-07-22T09:43:51;95305.34;;;42.74;16.79
13027;BME280;6580;42.680;23.324;2022-07-22T09:46:34;95304.56;;;42.74;16.78
13027;BME280;6580;42.680;23.324;2022-07-22T09:49:01;95290.72;;;43.85;16.73
13027;BME280;6580;42.680;23.324;2022-07-22T09:51:30;95295.44;;;43.19;16.48
13027;BME280;6580;42.680;23.324;2022-07-22T09:53:57;95288.59;;;43.63;16.63
13027;BME280;6580;42.680;23.324;2022-07-22T09:56:24;95290.38;;;43.71;16.24
13027;BME280;6580;42.680;23.324;2022-07-22T09:58:55;95295.22;;;42.97;16.34
13027;BME280;6580;42.680;23.324;2022-07-22T10:01:21;95289.50;;;42.00;17.41
13027;BME280;6580;42.680;23.324;2022-07-22T10:03:50;95286.50;;;42.32;16.84
13027;BME280;6580;42.680;23.324;2022-07-22T10:06:18;95281.19;;;42.97;16.48
13027;BME280;6580;42.680;23.324;2022-07-22T10:08:46;95285.69;;;43.44;16.58
13027;BME280;6580;42.680;23.324;2022-07-22T10:11:14;95277.63;;;43.58;16.44
13027;BME280;6580;42.680;23.324;2022-07-22T10:13:41;95281.50;;;43.38;15.73
13027;BME280;6580;42.680;23.324;2022-07-22T10:16:08;95281.97;;;43.25;16.16
13027;BME280;6580;42.680;23.324;2022-07-22T10:18:36;95275.78;;;43.50;16.02
13027;BME280;6580;42.680;23.324;2022-07-22T10:21:05;95272.97;;;42.61;16.85
13027;BME280;6580;42.680;23.324;2022-07-22T10:23:32;95273.38;;;43.18;16.67
13027;BME280;6580;42.680;23.324;2022-07-22T10:26:02;95273.91;;;43.54;16.37
13027;BME280;6580;42.680;23.324;2022-07-22T10:28:31;95266.03;;;43.44;16.51
13027;BME280;6580;42.680;23.324;2022-07-22T10:31:17;95262.38;;;42.98;16.39
13027;BME280;6580;42.680;23.324;2022-07-22T10:33:45;95268.63;;;43.07;16.14
13027;BME280;6580;42.680;23.324;2022-07-22T10:36:14;95273.66;;;42.31;16.98
13027;BME280;6580;42.680;23.324;2022-07-22T10:39:01;95278.13;;;41.00;17.60
13027;BME280;6580;42.680;23.324;2022-07-22T10:41:34;95272.03;;;41.55;17.07
13027;BME280;6580;42.680;23.324;2022-07-22T10:44:01;95257.56;;;43.13;16.82
13027;BME280;6580;42.680;23.324;2022-07-22T10:46:49;95252.28;;;44.05;15.83
13027;BME280;6580;42.680;23.324;2022-07-22T10:49:18;95253.81;;;44.36;15.92
13027;BME280;6580;42.680;23.324;2022-07-22T10:52:09;95251.97;;;43.75;15.68
13027;BME280;6580;42.680;23.324;2022-07-22T10:57:48;95250.72;;;44.26;15.46
13027;BME280;6580;42.680;23.324;2022-07-22T11:00:15;95270.03;;;43.43;15.56
13027;BME280;6580;42.680;23.324;2022-07-22T11:02:41;95256.22;;;43.69;15.42
13027;BME280;6580;42.680;23.324;2022-07-22T11:05:08;95247.34;;;43.83;15.51
13027;BME280;6580;42.680;23.324;2022-07-22T11:07:41;95248.63;;;43.70;15.40
13027;BME280;6580;42.680;23.324;2022-07-22T11:10:09;95258.53;;;43.48;15.66
13027;BME280;6580;42.680;23.324;2022-07-22T11:12:36;95247.31;;;42.75;16.18
13027;BME280;6580;42.680;23.324;2022-07-22T11:15:06;95248.25;;;42.79;16.18
13027;BME280;6580;42.680;23.324;2022-07-22T11:17:33;95239.34;;;43.35;16.16
13027;BME280;6580;42.680;23.324;2022-07-22T11:20:01;95216.09;;;42.61;16.62
13027;BME280;6580;42.680;23.324;2022-07-22T11:22:29;95238.78;;;43.60;15.68
13027;BME280;6580;42.680;23.324;2022-07-22T11:24:56;95242.75;;;43.75;15.75
13027;BME280;6580;42.680;23.324;2022-07-22T11:27:23;95228.84;;;43.47;15.54
13027;BME280;6580;42.680;23.324;2022-07-22T11:29:52;95241.44;;;42.25;16.31
13027;BME280;6580;42.680;23.324;2022-07-22T11:32:21;95247.53;;;42.82;16.05
13027;BME280;6580;42.680;23.324;2022-07-22T11:34:48;95241.44;;;42.64;16.10
13027;BME280;6580;42.680;23.324;2022-07-22T11:37:17;95230.19;;;43.38;16.32
13027;BME280;6580;42.680;23.324;2022-07-22T11:39:45;95229.69;;;43.82;15.76
13027;BME280;6580;42.680;23.324;2022-07-22T11:42:12;95236.47;;;43.81;15.63
13027;BME280;6580;42.680;23.324;2022-07-22T11:44:42;95235.03;;;44.06;15.34
13027;BME280;6580;42.680;23.324;2022-07-22T11:47:09;95233.00;;;44.22;15.05
13027;BME280;6580;42.680;23.324;2022-07-22T11:49:39;95232.69;;;44.08;15.00
13027;BME280;6580;42.680;23.324;2022-07-22T11:52:07;95226.56;;;43.87;15.44
13027;BME280;6580;42.680;23.324;2022-07-22T11:54:37;95227.88;;;43.74;15.63
13027;BME280;6580;42.680;23.324;2022-07-22T11:57:05;95230.72;;;43.43;15.78
13027;BME280;6580;42.680;23.324;2022-07-22T11:59:32;95224.56;;;43.69;15.34
13027;BME280;6580;42.680;23.324;2022-07-22T12:02:00;95221.59;;;42.57;16.17
13027;BME280;6580;42.680;23.324;2022-07-22T12:04:27;95236.03;;;42.44;16.73
13027;BME280;6580;42.680;23.324;2022-07-22T12:06:58;95214.94;;;41.95;17.05
13027;BME280;6580;42.680;23.324;2022-07-22T12:09:29;95224.34;;;42.14;17.06
13027;BME280;6580;42.680;23.324;2022-07-22T12:11:57;95223.69;;;42.60;16.90
13027;BME280;6580;42.680;23.324;2022-07-22T12:14:25;95226.19;;;42.22;17.08
13027;BME280;6580;42.680;23.324;2022-07-22T12:16:55;95220.66;;;42.26;16.93
13027;BME280;6580;42.680;23.324;2022-07-22T12:19:22;95215.34;;;41.70;17.26
13027;BME280;6580;42.680;23.324;2022-07-22T12:21:53;95216.97;;;40.87;17.69
13027;BME280;6580;42.680;23.324;2022-07-22T12:24:29;95224.78;;;41.53;17.34
13027;BME280;6580;42.680;23.324;2022-07-22T12:26:58;95205.50;;;42.00;16.87
13027;BME280;6580;42.680;23.324;2022-07-22T12:29:27;95209.47;;;41.99;16.87
13027;BME280;6580;42.680;23.324;2022-07-22T12:31:56;95193.34;;;41.96;16.75
13027;BME280;6580;42.680;23.324;2022-07-22T12:34:31;95210.91;;;42.20;16.75
13027;BME280;6580;42.680;23.324;2022-07-22T12:37:00;95214.97;;;42.22;16.97
13027;BME280;6580;42.680;23.324;2022-07-22T12:39:32;95214.09;;;41.67;16.76
13027;BME280;6580;42.680;23.324;2022-07-22T12:41:59;95212.53;;;40.86;18.03
13027;BME280;6580;42.680;23.324;2022-07-22T12:44:26;95218.31;;;40.69;17.36
13027;BME280;6580;42.680;23.324;2022-07-22T12:46:54;95209.81;;;40.66;17.56
13027;BME280;6580;42.680;23.324;2022-07-22T12:49:24;95207.19;;;41.05;17.01
13027;BME280;6580;42.680;23.324;2022-07-22T12:52:11;95209.31;;;40.52;17.11
13027;BME280;6580;42.680;23.324;2022-07-22T12:54:40;95201.66;;;39.96;17.68
13027;BME280;6580;42.680;23.324;2022-07-22T12:57:08;95210.34;;;39.74;18.31
13027;BME280;6580;42.680;23.324;2022-07-22T12:59:36;95201.16;;;39.74;18.64
13027;BME280;6580;42.680;23.324;2022-07-22T13:02:03;95161.91;;;39.58;18.67
13027;BME280;6580;42.680;23.324;2022-07-22T13:04:30;95187.03;;;39.50;18.78
13027;BME280;6580;42.680;23.324;2022-07-22T13:06:57;95198.72;;;39.43;18.85